createdAt,value
2018-08-25T00:00:52.378Z,10.97
2018-08-25T00:05:55.634Z,11.43
2018-08-25T00:10:58.908Z,12.00
2018-08-25T00:16:02.176Z,11.20
2018-08-25T00:21:05.462Z,10.30
2018-08-25T00:26:08.740Z,10.07
2018-08-25T00:31:17.331Z,11.73
2018-08-25T00:36:20.789Z,10.70
2018-08-25T00:41:24.037Z,11.53
2018-08-25T00:46:27.305Z,10.13
2018-08-25T00:51:30.576Z,10.93
2018-08-25T00:56:33.849Z,10.70
2018-08-25T01:01:37.101Z,10.40
2018-08-25T01:06:40.373Z,10.73
2018-08-25T01:11:43.639Z,7.77
2018-08-25T01:16:46.896Z,10.37
2018-08-25T01:21:50.149Z,10.10
2018-08-25T01:26:53.467Z,10.77
2018-08-25T01:31:56.768Z,12.80
2018-08-25T01:37:00.017Z,13.00
2018-08-25T01:42:03.341Z,13.03
2018-08-25T01:47:06.600Z,11.50
2018-08-25T01:52:09.865Z,9.90
2018-08-25T01:57:13.130Z,10.57
2018-08-25T02:02:16.402Z,11.73
2018-08-25T02:07:19.664Z,12.67
2018-08-25T02:12:23.751Z,9.97
2018-08-25T02:17:27.070Z,12.37
2018-08-25T02:22:30.349Z,11.50
2018-08-25T02:27:33.633Z,10.17
2018-08-25T02:32:36.622Z,11.37
2018-08-25T02:37:39.905Z,10.77
2018-08-25T02:42:43.190Z,9.57
2018-08-25T02:47:46.462Z,8.33
2018-08-25T02:52:49.710Z,9.67
2018-08-25T02:57:52.976Z,6.47
2018-08-25T03:02:56.239Z,9.63
2018-08-25T03:07:59.499Z,4.27
2018-08-25T03:13:02.792Z,9.67
2018-08-25T03:18:06.060Z,9.67
2018-08-25T03:23:09.307Z,10.70
2018-08-25T03:28:12.318Z,11.20
2018-08-25T03:33:15.572Z,10.20
2018-08-25T03:38:18.868Z,10.17
2018-08-25T03:43:22.079Z,10.50
2018-08-25T03:48:25.338Z,10.83
2018-08-25T03:53:28.599Z,10.23
2018-08-25T03:58:31.856Z,10.47
2018-08-25T04:03:34.867Z,14.00
2018-08-25T04:08:38.139Z,11.20
2018-08-25T04:13:41.395Z,11.07
2018-08-25T04:18:44.653Z,10.93
2018-08-25T04:23:47.903Z,10.63
2018-08-25T04:28:51.270Z,9.33
2018-08-25T04:33:56.384Z,9.93
2018-08-25T04:38:59.644Z,5.33
2018-08-25T04:44:02.918Z,9.13
2018-08-25T04:49:06.419Z,9.10
2018-08-25T04:54:09.692Z,7.93
2018-08-25T04:59:12.953Z,5.23
2018-08-25T05:04:16.207Z,9.00
2018-08-25T05:09:19.468Z,12.05
2018-08-25T05:14:22.727Z,12.85
2018-08-25T05:19:25.980Z,10.53
2018-08-25T05:24:29.223Z,8.50
2018-08-25T05:29:32.488Z,8.93
2018-08-25T05:34:35.747Z,8.33
2018-08-25T05:39:39.007Z,8.77
2018-08-25T05:44:42.271Z,7.87
2018-08-25T05:49:45.262Z,9.53
2018-08-25T05:54:48.523Z,7.87
2018-08-25T05:59:51.798Z,11.40
2018-08-25T06:04:55.083Z,11.43
2018-08-25T06:09:58.330Z,10.67
2018-08-25T06:15:01.610Z,10.88
2018-08-25T06:20:04.887Z,8.67
2018-08-25T06:25:08.675Z,6.87
2018-08-25T06:30:11.999Z,10.63
2018-08-25T06:35:15.275Z,10.57
2018-08-25T06:40:18.624Z,10.55
2018-08-25T06:45:22.311Z,10.57
2018-08-25T06:50:25.652Z,9.90
2018-08-25T06:55:28.907Z,9.37
2018-08-25T07:00:32.181Z,11.57
2018-08-25T07:05:35.463Z,9.60
2018-08-25T07:10:38.738Z,9.33
2018-08-25T07:15:42.015Z,6.20
2018-08-25T07:20:45.295Z,7.55
2018-08-25T07:25:48.623Z,7.90
2018-08-25T07:30:51.544Z,8.40
2018-08-25T07:35:54.794Z,7.67
2018-08-25T07:40:58.044Z,7.85
2018-08-25T07:46:01.291Z,8.38
2018-08-25T07:51:04.652Z,5.80
2018-08-25T07:56:08.260Z,6.43
2018-08-25T08:01:11.529Z,7.30
2018-08-25T08:06:14.814Z,5.00
2018-08-25T08:11:18.051Z,3.97
2018-08-25T08:16:21.342Z,7.63
2018-08-25T08:21:24.679Z,8.13
2018-08-25T08:26:28.135Z,6.73
2018-08-25T08:31:31.384Z,7.03
2018-08-25T08:36:34.615Z,5.70
2018-08-25T08:41:38.287Z,6.53
2018-08-25T08:46:41.523Z,4.43
2018-08-25T08:51:44.776Z,4.00
2018-08-25T08:56:48.056Z,5.00
2018-08-25T09:01:51.509Z,5.70
2018-08-25T09:06:54.772Z,3.27
2018-08-25T09:11:58.073Z,4.30
2018-08-25T09:17:01.300Z,2.67
2018-08-25T09:22:04.582Z,8.50
2018-08-25T09:27:07.810Z,5.60
2018-08-25T09:32:11.086Z,3.00
2018-08-25T09:37:14.332Z,5.87
2018-08-25T09:42:17.516Z,4.87
2018-08-25T09:47:20.754Z,3.73
2018-08-25T09:52:24.079Z,2.03
2018-08-25T09:57:27.275Z,4.47
2018-08-25T10:02:30.524Z,3.17
2018-08-25T10:07:34.023Z,4.70
2018-08-25T10:12:37.727Z,5.00
2018-08-25T10:17:40.967Z,4.03
2018-08-25T10:22:44.459Z,4.97
2018-08-25T10:27:48.569Z,4.60
2018-08-25T10:32:51.864Z,2.53
2018-08-25T10:37:55.126Z,8.27
2018-08-25T10:42:58.386Z,4.60
2018-08-25T10:48:01.427Z,4.57
2018-08-25T10:53:05.121Z,3.97
2018-08-25T10:58:08.402Z,4.50
2018-08-25T11:03:11.676Z,4.17
2018-08-25T11:08:14.935Z,4.13
2018-08-25T11:13:18.182Z,2.73
2018-08-25T11:18:21.451Z,4.10
2018-08-25T11:23:25.216Z,4.53
2018-08-25T11:28:28.740Z,3.97
2018-08-25T11:33:31.718Z,3.10
2018-08-25T11:38:35.414Z,3.97
2018-08-25T11:43:38.658Z,3.17
2018-08-25T11:48:43.283Z,4.37
2018-08-25T11:53:46.702Z,3.30
2018-08-25T11:58:50.010Z,3.77
2018-08-25T12:03:53.330Z,4.37
2018-08-25T12:08:56.556Z,4.03
2018-08-25T12:14:00.071Z,4.30
2018-08-25T12:19:04.750Z,4.70
2018-08-25T12:24:11.414Z,4.33
2018-08-25T12:29:14.459Z,5.30
2018-08-25T12:34:17.719Z,1.77
2018-08-25T12:39:23.902Z,1.90
2018-08-25T12:44:27.168Z,2.40
2018-08-25T12:49:30.424Z,4.10
2018-08-25T12:54:33.669Z,4.00
2018-08-25T12:59:36.920Z,3.73
2018-08-25T13:04:40.413Z,4.70
2018-08-25T13:09:44.465Z,4.77
2018-08-25T13:14:47.731Z,2.10
2018-08-25T13:19:50.960Z,2.10
2018-08-25T13:24:55.707Z,2.17
2018-08-25T13:29:59.036Z,2.80
2018-08-25T13:35:02.348Z,1.90
2018-08-25T13:40:06.013Z,1.13
2018-08-25T13:45:09.253Z,1.97
2018-08-25T13:50:12.508Z,2.03
2018-08-25T13:55:15.892Z,1.60
2018-08-25T14:00:19.157Z,1.80
2018-08-25T14:05:22.166Z,1.67
2018-08-25T14:10:26.064Z,1.53
2018-08-25T14:15:29.344Z,1.60
2018-08-25T14:20:32.585Z,1.80
2018-08-25T14:25:35.832Z,1.50
2018-08-25T14:30:39.093Z,1.63
2018-08-25T14:35:42.347Z,1.67
2018-08-25T14:40:45.625Z,1.50
2018-08-25T14:45:49.908Z,1.60
2018-08-25T14:50:53.528Z,1.93
2018-08-25T14:55:56.828Z,1.30
2018-08-25T15:01:00.151Z,1.70
2018-08-25T15:06:03.327Z,3.07
2018-08-25T15:11:06.910Z,1.93
2018-08-25T15:16:11.034Z,1.93
2018-08-25T15:21:14.300Z,1.90
2018-08-25T15:26:17.590Z,1.70
2018-08-25T15:31:20.949Z,1.77
2018-08-25T15:36:24.278Z,1.20
2018-08-25T15:41:27.522Z,1.50
2018-08-25T15:46:30.791Z,1.70
2018-08-25T15:51:34.027Z,1.20
2018-08-25T15:56:37.252Z,2.10
2018-08-25T16:01:40.635Z,1.50
2018-08-25T16:06:43.618Z,1.50
2018-08-25T16:11:47.870Z,1.47
2018-08-25T16:16:51.816Z,2.40
2018-08-25T16:21:55.091Z,1.30
2018-08-25T16:26:58.417Z,1.50
2018-08-25T16:32:01.603Z,2.30
2018-08-25T16:37:05.636Z,1.43
2018-08-25T16:42:09.219Z,1.17
2018-08-25T16:47:13.046Z,1.27
2018-08-25T16:52:17.295Z,1.30
2018-08-25T16:57:20.693Z,1.17
2018-08-25T17:02:24.414Z,1.27
2018-08-25T17:07:27.807Z,1.27
2018-08-25T17:12:31.351Z,1.23
2018-08-25T17:17:35.127Z,1.57
2018-08-25T17:22:38.780Z,1.50
2018-08-25T17:27:42.687Z,1.60
2018-08-25T17:32:46.323Z,1.50
2018-08-25T17:37:49.585Z,2.07
2018-08-25T17:42:52.831Z,3.23
2018-08-25T17:47:57.523Z,1.77
2018-08-25T17:53:00.895Z,1.73
2018-08-25T17:58:04.147Z,2.00
2018-08-25T18:03:07.210Z,1.93
2018-08-25T18:08:10.452Z,2.07
2018-08-25T18:13:13.731Z,1.90
2018-08-25T18:18:17.168Z,1.93
2018-08-25T18:23:20.210Z,2.03
2018-08-25T18:28:23.186Z,2.07
2018-08-25T18:33:26.509Z,2.00
2018-08-25T18:38:29.465Z,2.27
2018-08-25T18:43:32.470Z,1.93
2018-08-25T18:48:35.492Z,1.70
2018-08-25T18:53:38.878Z,1.80
2018-08-25T18:58:42.163Z,4.60
2018-08-25T19:03:45.186Z,1.83
2018-08-25T19:08:48.419Z,2.13
2018-08-25T19:13:51.744Z,2.63
2018-08-25T19:18:55.078Z,3.20
2018-08-25T19:23:58.387Z,2.77
2018-08-25T19:29:01.855Z,2.40
2018-08-25T19:34:05.367Z,2.87
2018-08-25T19:39:09.815Z,1.90
2018-08-25T19:44:13.832Z,2.17
2018-08-25T19:49:17.180Z,1.83
2018-08-25T19:54:20.747Z,2.03
2018-08-25T19:59:24.073Z,1.80
2018-08-25T20:04:27.259Z,1.73
2018-08-25T20:09:31.049Z,1.70
2018-08-25T20:14:34.175Z,1.67
2018-08-25T20:19:37.624Z,2.23
2018-08-25T20:24:41.342Z,1.57
2018-08-25T20:29:44.792Z,2.27
2018-08-25T20:34:48.233Z,4.83
2018-08-25T20:39:52.256Z,5.70
2018-08-25T20:44:55.754Z,2.30
2018-08-25T20:49:59.670Z,2.27
2018-08-25T20:55:03.686Z,2.60
2018-08-25T21:00:07.818Z,2.77
2018-08-25T21:05:11.197Z,2.50
2018-08-25T21:10:14.213Z,2.47
2018-08-25T21:15:17.376Z,3.60
2018-08-25T21:20:20.645Z,3.10
2018-08-25T21:25:24.247Z,2.83
2018-08-25T21:30:27.253Z,4.03
2018-08-25T21:35:30.441Z,3.63
2018-08-25T21:40:33.665Z,6.00
2018-08-25T21:45:37.469Z,3.53
2018-08-25T21:50:40.554Z,4.77
2018-08-25T21:55:43.818Z,4.60
2018-08-25T22:00:52.400Z,4.30
2018-08-25T22:05:56.572Z,3.43
2018-08-25T22:10:59.880Z,4.90
2018-08-25T22:16:02.885Z,4.63
2018-08-25T22:21:05.939Z,4.70
2018-08-25T22:26:09.175Z,4.67
2018-08-25T22:31:12.473Z,4.70
2018-08-25T22:36:15.735Z,4.63
2018-08-25T22:41:19.041Z,5.07
2018-08-25T22:46:22.288Z,4.90
2018-08-25T22:51:25.368Z,5.27
2018-08-25T22:56:28.546Z,5.90
2018-08-25T23:01:31.659Z,5.90
2018-08-25T23:06:34.839Z,5.97
2018-08-25T23:11:38.283Z,5.40
2018-08-25T23:16:41.535Z,5.43
2018-08-25T23:21:44.783Z,5.67
2018-08-25T23:26:48.039Z,5.67
2018-08-25T23:31:51.278Z,5.13
2018-08-25T23:36:54.548Z,5.03
2018-08-25T23:41:57.805Z,5.37
2018-08-25T23:47:01.085Z,4.53
2018-08-25T23:52:04.347Z,4.90
2018-08-25T23:57:07.598Z,5.73
